Time;durP1;ratioP1;P1;durP2;ratioP2;P2;SDS_P1;SDS_P2;PMS_P1;PMS_P2;Temp;Humidity;BMP_temperature;BMP_pressure;BME280_temperature;BME280_humidity;BME280_pressure;Samples;Min_cycle;Max_cycle;Signal;HPM_P1;HPM_P2
2023/09/25 00:01:24;;;;;;;170.98;10.50;;;;;;;21.81;48.05;100595.13;7302548;19;130414;-35
2023/09/25 00:03:49;;;;;;;60.45;4.38;;;;;;;21.69;48.27;100585.56;7301487;19;129618;-38
2023/09/25 00:06:14;;;;;;;119.30;7.27;;;;;;;21.83;48.98;100598.44;7303768;19;129192;-36
2023/09/25 00:08:40;;;;;;;93.65;5.85;;;;;;;21.81;47.93;100587.28;7302866;19;131897;-36
2023/09/25 00:11:05;;;;;;;93.07;5.97;;;;;;;21.80;48.21;100577.75;7300524;19;130140;-36
2023/09/25 00:13:31;;;;;;;86.23;5.23;;;;;;;21.82;48.08;100591.56;7301229;19;130123;-36
2023/09/25 00:16:03;;;;;;;82.57;5.20;;;;;;;21.77;48.53;100583.22;7301266;19;129233;-37
2023/09/25 00:18:28;;;;;;;83.70;5.50;;;;;;;21.78;47.97;100592.72;7299826;19;130442;-36
2023/09/25 00:20:54;;;;;;;64.30;4.67;;;;;;;21.81;47.86;100596.91;7300055;19;130163;-36
2023/09/25 00:23:20;;;;;;;85.30;5.78;;;;;;;21.79;48.71;100578.72;7301966;19;130514;-36
2023/09/25 00:25:45;;;;;;;107.70;6.55;;;;;;;21.83;48.39;100587.16;7301898;19;129641;-36
2023/09/25 00:28:11;;;;;;;127.57;8.27;;;;;;;21.81;48.30;100584.66;7301984;19;129406;-36
2023/09/25 00:30:36;;;;;;;44.25;3.58;;;;;;;21.66;48.64;100553.53;7299374;19;130421;-36
2023/09/25 00:33:02;;;;;;;68.32;4.60;;;;;;;21.81;48.07;100584.66;7301246;19;130257;-36
2023/09/25 00:35:27;;;;;;;63.50;4.30;;;;;;;21.82;48.79;100580.25;7301230;19;129715;-35
2023/09/25 00:37:53;;;;;;;33.75;3.00;;;;;;;21.83;48.51;100577.50;7299705;19;129317;-36
2023/09/25 00:40:19;;;;;;;97.60;6.55;;;;;;;21.82;47.59;100575.00;7299208;19;130137;-36
2023/09/25 00:42:53;;;;;;;46.57;3.60;;;;;;;21.81;50.07;100584.66;7302444;19;131003;-36
2023/09/25 00:45:19;;;;;;;115.50;7.13;;;;;;;21.75;48.34;100569.38;7299676;19;130144;-36
2023/09/25 00:47:45;;;;;;;88.27;5.37;;;;;;;21.77;48.50;100583.22;7303577;19;128782;-36
2023/09/25 00:50:11;;;;;;;69.68;4.88;;;;;;;21.76;47.65;100583.31;7298363;19;129688;-37
2023/09/25 00:52:40;;;;;;;60.10;4.17;;;;;;;21.64;49.00;100564.13;7303314;19;130884;-37
2023/09/25 00:55:06;;;;;;;112.05;6.78;;;;;;;21.75;47.89;100590.31;7303731;19;129597;-36
2023/09/25 00:57:35;;;;;;;50.65;3.70;;;;;;;21.76;48.45;100581.56;7308185;19;129119;-36
2023/09/25 01:00:02;;;;;;;72.40;4.93;;;;;;;21.75;48.54;100586.88;7304230;19;130881;-36
2023/09/25 01:02:28;;;;;;;95.88;6.30;;;;;;;21.73;48.52;100575.69;7307677;19;132013;-34
2023/09/25 01:04:54;;;;;;;97.95;6.30;;;;;;;21.71;48.25;100567.97;7307610;19;129538;-36
2023/09/25 01:07:19;;;;;;;110.78;7.25;;;;;;;21.75;48.12;100574.63;7307992;19;130388;-37
2023/09/25 01:10:23;;;;;;;71.50;5.03;;;;;;;21.72;50.61;100572.22;7307596;19;129501;-34
2023/09/25 01:12:49;;;;;;;59.80;3.97;;;;;;;21.61;48.29;100545.22;7303650;19;129823;-36
2023/09/25 01:15:15;;;;;;;85.65;5.53;;;;;;;21.73;48.19;100573.88;7301091;19;129218;-36
2023/09/25 01:17:41;;;;;;;68.90;4.53;;;;;;;21.72;47.99;100559.16;7304552;19;130099;-37
2023/09/25 01:20:17;;;;;;;108.95;6.45;;;;;;;21.69;48.81;100554.16;7305798;19;131141;-36
2023/09/25 01:22:47;;;;;;;83.03;5.18;;;;;;;21.71;49.20;100562.72;7308931;19;130435;-36
2023/09/25 01:25:13;;;;;;;60.05;4.28;;;;;;;21.70;48.61;100566.28;7305735;19;130170;-37
2023/09/25 01:27:40;;;;;;;61.38;4.28;;;;;;;21.69;48.44;100572.47;7307943;19;129413;-35
2023/09/25 01:30:09;;;;;;;73.85;4.82;;;;;;;21.65;48.23;100571.03;7304893;19;130176;-36
2023/09/25 01:32:38;;;;;;;65.80;4.30;;;;;;;21.68;48.52;100572.59;7307911;19;130727;-36
2023/09/25 01:35:07;;;;;;;60.88;4.22;;;;;;;21.59;48.26;100555.81;7303432;19;130086;-35
2023/09/25 01:37:33;;;;;;;54.35;3.63;;;;;;;21.70;47.88;100570.69;7306969;19;129789;-36
2023/09/25 01:39:59;;;;;;;74.68;4.90;;;;;;;21.71;47.16;100567.97;7305566;19;130156;-36
2023/09/25 01:42:25;;;;;;;115.38;6.70;;;;;;;21.69;47.88;100569.84;7305748;19;131482;-36
2023/09/25 01:44:50;;;;;;;95.63;6.55;;;;;;;21.68;47.89;100559.50;7306079;19;131070;-36
2023/09/25 01:47:17;;;;;;;81.83;5.37;;;;;;;21.67;48.16;100561.28;7305215;19;130199;-35
2023/09/25 01:49:43;;;;;;;75.85;4.88;;;;;;;21.70;47.89;100561.03;7305966;19;130728;-36
2023/09/25 01:52:08;;;;;;;102.60;6.10;;;;;;;21.68;48.06;100546.41;7306235;19;130703;-36
2023/09/25 01:54:35;;;;;;;53.78;3.88;;;;;;;21.66;47.54;100549.16;7305261;19;129523;-36
2023/09/25 01:57:01;;;;;;;61.05;4.18;;;;;;;21.68;48.13;100555.09;7305315;19;129757;-36
2023/09/25 01:59:26;;;;;;;115.77;7.30;;;;;;;21.70;47.93;100545.34;7303878;19;130223;-37
2023/09/25 02:01:51;;;;;;;79.13;5.03;;;;;;;21.71;47.93;100536.56;7307128;19;131315;-35
2023/09/25 02:04:17;;;;;;;81.18;5.05;;;;;;;21.70;48.08;100540.09;7306218;19;129967;-36
2023/09/25 02:06:42;;;;;;;54.35;3.65;;;;;;;21.55;47.89;100520.34;7307243;19;129787;-36
2023/09/25 02:09:10;;;;;;;83.87;5.10;;;;;;;21.67;47.60;100534.25;7304955;19;130796;-36
2023/09/25 02:11:36;;;;;;;68.63;4.75;;;;;;;21.68;47.36;100539.38;7306172;19;131190;-36
2023/09/25 02:14:01;;;;;;;89.03;5.80;;;;;;;21.70;47.96;100536.69;7305873;19;129310;-36
2023/09/25 02:16:26;;;;;;;146.57;9.67;;;;;;;21.57;47.87;100502.75;7302379;19;129850;-37
2023/09/25 02:18:52;;;;;;;110.97;6.33;;;;;;;21.66;47.66;100522.16;7302635;19;129940;-36
2023/09/25 02:21:17;;;;;;;95.20;6.05;;;;;;;21.65;47.71;100516.06;7305729;19;130644;-36
2023/09/25 02:23:42;;;;;;;58.88;3.85;;;;;;;21.67;47.23;100524.63;7307629;19;129588;-34
2023/09/25 02:26:08;;;;;;;68.93;4.60;;;;;;;21.69;47.00;100514.06;7305600;19;129722;-36
2023/09/25 02:28:33;;;;;;;69.32;4.55;;;;;;;21.49;46.66;100493.81;7304767;19;129399;-37
2023/09/25 02:30:58;;;;;;;71.63;4.43;;;;;;;21.66;47.11;100515.13;7303491;19;129785;-36
2023/09/25 02:33:23;;;;;;;88.97;5.93;;;;;;;21.54;46.98;100510.84;7304635;19;129953;-36
2023/09/25 02:35:49;;;;;;;99.45;6.38;;;;;;;21.62;47.48;100518.09;7304164;19;129372;-37
2023/09/25 02:38:14;;;;;;;193.95;11.70;;;;;;;21.63;47.76;100523.22;7301582;19;130144;-35
2023/09/25 02:40:39;;;;;;;55.77;3.80;;;;;;;21.65;47.64;100523.91;7302611;19;132666;-36
2023/09/25 02:43:05;;;;;;;59.70;4.10;;;;;;;21.65;47.65;100515.25;7305763;19;134602;-37
2023/09/25 02:45:31;;;;;;;131.00;7.87;;;;;;;21.66;47.31;100522.16;7305176;19;129612;-37
2023/09/25 02:47:56;;;;;;;49.23;3.37;;;;;;;21.65;47.09;100526.53;7306570;19;128994;-35
2023/09/25 02:50:22;;;;;;;111.25;6.80;;;;;;;21.63;47.65;100522.38;7300403;19;130452;-36
2023/09/25 02:52:47;;;;;;;70.20;4.73;;;;;;;21.64;47.64;100514.41;7304730;19;129272;-36
2023/09/25 02:55:13;;;;;;;107.57;6.65;;;;;;;21.64;47.68;100508.34;7301114;19;130583;-35
2023/09/25 02:57:38;;;;;;;76.28;4.93;;;;;;;21.63;46.74;100509.31;7305286;19;130166;-37
2023/09/25 03:00:11;;;;;;;58.50;4.03;;;;;;;21.63;47.57;100512.75;7301118;19;131522;-36
2023/09/25 03:02:39;;;;;;;68.65;4.47;;;;;;;21.63;47.05;100512.75;7305781;19;129295;-38
2023/09/25 03:05:05;;;;;;;77.55;4.68;;;;;;;21.59;47.42;100516.56;7302807;19;129504;-35
2023/09/25 03:07:31;;;;;;;108.47;6.87;;;;;;;21.48;47.15;100486.91;7305048;19;130284;-36
2023/09/25 03:09:56;;;;;;;48.45;3.60;;;;;;;21.60;46.84;100507.72;7303389;19;130740;-36
2023/09/25 03:12:22;;;;;;;98.40;6.05;;;;;;;21.56;47.06;100493.25;7306175;19;129576;-36
2023/09/25 03:14:47;;;;;;;63.97;4.17;;;;;;;21.62;46.76;100500.59;7304075;19;128771;-36
2023/09/25 03:17:12;;;;;;;88.13;5.47;;;;;;;21.60;47.13;100502.50;7302215;19;130160;-35
2023/09/25 03:19:38;;;;;;;59.80;3.72;;;;;;;21.60;46.99;100505.13;7304797;19;130440;-36
2023/09/25 03:22:03;;;;;;;71.00;4.88;;;;;;;21.50;47.22;100485.84;7305105;19;129752;-36
2023/09/25 03:24:30;;;;;;;115.72;6.82;;;;;;;21.59;47.14;100493.00;7304542;19;128893;-38
2023/09/25 03:26:55;;;;;;;82.57;4.93;;;;;;;21.61;47.87;100498.94;7303841;19;129890;-36
2023/09/25 03:29:21;;;;;;;61.13;4.37;;;;;;;21.59;46.98;100492.16;7302821;19;129685;-36
2023/09/25 03:31:46;;;;;;;59.88;3.90;;;;;;;21.60;46.85;100492.03;7304472;19;129098;-36
2023/09/25 03:34:11;;;;;;;103.50;6.17;;;;;;;21.59;47.16;100495.63;7303920;19;129723;-37
2023/09/25 03:36:37;;;;;;;52.45;3.88;;;;;;;21.56;46.73;100488.00;7303951;19;130365;-36
2023/09/25 03:39:02;;;;;;;60.73;4.13;;;;;;;21.59;47.25;100487.75;7301528;19;130147;-36
2023/09/25 03:41:28;;;;;;;84.75;5.57;;;;;;;21.56;46.48;100489.78;7304254;19;129723;-35
2023/09/25 03:43:53;;;;;;;107.07;6.25;;;;;;;21.57;46.79;100491.44;7304201;19;130872;-36
2023/09/25 03:46:19;;;;;;;53.30;3.45;;;;;;;21.56;46.67;100490.63;7304756;19;132587;-34
2023/09/25 03:48:45;;;;;;;93.20;5.78;;;;;;;21.62;47.17;100494.53;7303024;19;130354;-36
2023/09/25 03:51:11;;;;;;;91.90;5.38;;;;;;;21.59;47.04;100490.38;7303484;19;129149;-36
2023/09/25 03:53:36;;;;;;;110.95;6.80;;;;;;;21.58;46.61;100483.50;7302658;19;129351;-35
2023/09/25 03:56:02;;;;;;;64.38;4.22;;;;;;;21.61;46.19;100483.25;7304317;19;129443;-36
2023/09/25 03:58:27;;;;;;;95.73;6.17;;;;;;;21.57;46.44;100481.81;7302266;19;130374;-35
2023/09/25 04:00:52;;;;;;;71.95;4.38;;;;;;;21.56;45.87;100485.38;7300731;19;129751;-36
2023/09/25 04:03:18;;;;;;;79.15;4.80;;;;;;;21.41;45.63;100465.63;7304086;19;129045;-37
2023/09/25 04:05:43;;;;;;;88.33;5.67;;;;;;;21.51;45.95;100484.91;7303011;19;130930;-36
2023/09/25 04:08:09;;;;;;;93.70;6.03;;;;;;;21.50;46.44;100487.66;7301570;19;130304;-33
2023/09/25 04:10:34;;;;;;;104.23;6.47;;;;;;;21.52;47.03;100483.09;7300401;19;129753;-36
2023/09/25 04:13:00;;;;;;;71.30;4.18;;;;;;;21.41;46.86;100465.63;7300930;19;129296;-35
2023/09/25 04:15:26;;;;;;;99.50;6.07;;;;;;;21.49;46.56;100478.94;7299126;19;130913;-37
2023/09/25 04:17:52;;;;;;;52.73;3.63;;;;;;;21.52;46.43;100494.41;7301745;19;129635;-37
2023/09/25 04:20:24;;;;;;;84.30;5.17;;;;;;;21.54;46.50;100487.28;7299401;19;129310;-37
2023/09/25 04:22:51;;;;;;;72.50;4.47;;;;;;;21.50;46.88;100485.84;7303807;19;129836;-36
2023/09/25 04:25:20;;;;;;;40.03;3.08;;;;;;;21.46;46.89;100481.81;7303320;19;131385;-36
2023/09/25 04:27:47;;;;;;;56.13;3.67;;;;;;;21.44;47.24;100495.94;7301878;19;130373;-37
2023/09/25 04:30:14;;;;;;;;;;;;;;;21.42;48.82;100493.44;7309397;19;129334;-35
2023/09/25 04:32:44;;;;;;;105.37;6.03;;;;;;;21.44;47.55;100480.25;7309009;19;129416;-36
2023/09/25 04:35:11;;;;;;;97.93;5.70;;;;;;;21.44;47.58;100475.84;7307660;19;130137;-35
2023/09/25 04:37:37;;;;;;;132.52;8.05;;;;;;;21.44;47.04;100486.31;7306863;19;130904;-37
2023/09/25 04:40:12;;;;;;;86.23;5.20;;;;;;;21.43;47.22;100479.44;7307039;19;128728;-37
2023/09/25 04:42:37;;;;;;;111.13;6.25;;;;;;;21.45;47.72;100477.50;7309931;19;130563;-35
2023/09/25 04:45:03;;;;;;;65.97;4.40;;;;;;;21.44;47.89;100478.47;7311459;19;132528;-36
2023/09/25 04:47:29;;;;;;;81.57;5.07;;;;;;;21.30;48.19;100454.31;7306833;19;130464;-36
2023/09/25 04:49:55;;;;;;;;;;;;;;;21.46;49.07;100475.72;7304021;19;129222;-37
2023/09/25 04:52:23;;;;;;;109.53;6.13;;;;;;;21.49;48.05;100471.09;7306408;19;129690;-36
2023/09/25 04:54:49;;;;;;;80.45;4.72;;;;;;;21.47;48.18;100475.63;7305712;19;131000;-36
2023/09/25 04:57:14;;;;;;;87.75;5.60;;;;;;;21.50;48.18;100472.75;7305982;19;130300;-36
2023/09/25 04:59:39;;;;;;;108.13;6.85;;;;;;;21.49;48.28;100478.94;7299457;19;131108;-36
2023/09/25 05:02:05;;;;;;;144.75;8.13;;;;;;;21.50;48.03;100485.03;7304428;19;133132;-37
2023/09/25 05:04:30;;;;;;;126.13;7.75;;;;;;;21.51;47.79;100478.84;7304149;19;130698;-36
2023/09/25 05:06:55;;;;;;;96.10;6.10;;;;;;;21.53;48.24;100477.78;7304975;19;130341;-37
2023/09/25 05:09:22;;;;;;;87.90;5.32;;;;;;;21.39;48.28;100456.22;7303841;19;129324;-36
2023/09/25 05:11:47;;;;;;;113.95;6.40;;;;;;;21.52;48.17;100473.47;7306261;19;129308;-36
2023/09/25 05:14:13;;;;;;;79.20;4.87;;;;;;;21.51;48.54;100477.06;7305424;19;130537;-37
2023/09/25 05:16:38;;;;;;;90.15;6.32;;;;;;;21.51;48.29;100469.22;7305286;19;130429;-36
2023/09/25 05:19:03;;;;;;;97.80;6.25;;;;;;;21.55;48.38;100483.69;7302226;19;129687;-36
2023/09/25 05:21:29;;;;;;;116.32;7.40;;;;;;;21.57;48.28;100481.81;7304652;19;129450;-36
2023/09/25 05:23:55;;;;;;;59.47;4.07;;;;;;;21.60;47.82;100476.34;7307044;19;130129;-36
2023/09/25 05:26:20;;;;;;;77.60;5.20;;;;;;;21.47;47.65;100449.44;7302119;19;130979;-35
2023/09/25 05:28:45;;;;;;;95.78;5.95;;;;;;;21.61;47.52;100480.63;7303879;19;129333;-36
2023/09/25 05:31:11;;;;;;;111.23;6.67;;;;;;;21.60;47.43;100486.81;7305654;19;129527;-35
2023/09/25 05:33:36;;;;;;;109.57;7.28;;;;;;;21.58;46.63;100482.66;7303583;19;130713;-37
2023/09/25 05:36:01;;;;;;;104.97;6.63;;;;;;;21.56;47.55;100482.78;7299554;19;130367;-36
2023/09/25 05:38:27;;;;;;;266.13;16.10;;;;;;;21.53;47.13;100485.63;7293143;19;131438;-35
2023/09/25 05:40:52;;;;;;;79.17;5.30;;;;;;;21.41;46.99;100449.94;7299979;19;129567;-36
2023/09/25 05:43:19;;;;;;;79.32;5.40;;;;;;;21.56;47.49;100479.31;7306289;19;130019;-37
2023/09/25 05:45:44;;;;;;;149.00;9.93;;;;;;;21.50;46.62;100475.38;7300738;19;130358;-36
2023/09/25 05:48:09;;;;;;;155.55;9.07;;;;;;;21.54;46.98;100482.06;7302943;19;130246;-36
2023/09/25 05:50:36;;;;;;;90.47;5.47;;;;;;;21.55;46.75;100477.66;7304754;19;129670;-36
2023/09/25 05:53:03;;;;;;;106.28;6.53;;;;;;;21.55;47.13;100483.69;7305974;19;130777;-36
2023/09/25 05:55:28;;;;;;;65.55;4.35;;;;;;;21.52;47.21;100483.94;7300125;19;130122;-36
2023/09/25 05:57:55;;;;;;;110.68;6.80;;;;;;;21.49;47.41;100473.72;7303627;19;129231;-36
2023/09/25 06:00:22;;;;;;;63.80;4.45;;;;;;;21.49;47.01;100484.19;7300200;19;129461;-36
2023/09/25 06:02:48;;;;;;;85.45;5.35;;;;;;;21.49;46.83;100484.19;7305782;19;129801;-35
2023/09/25 06:05:13;;;;;;;90.07;5.43;;;;;;;21.50;47.69;100485.84;7306890;19;130726;-36
2023/09/25 06:07:39;;;;;;;116.82;7.43;;;;;;;21.49;47.33;100493.81;7306646;19;129176;-36
2023/09/25 06:10:04;;;;;;;69.27;4.37;;;;;;;21.50;47.02;100500.72;7305438;19;129613;-37
2023/09/25 06:12:30;;;;;;;58.92;4.38;;;;;;;21.37;47.04;100477.25;7305574;19;130637;-36
2023/09/25 06:14:56;;;;;;;106.00;6.83;;;;;;;21.44;47.26;100491.56;7303014;19;131140;-36
2023/09/25 06:17:21;;;;;;;114.60;6.63;;;;;;;21.38;48.23;100481.56;7302300;19;131063;-35
2023/09/25 06:19:46;;;;;;;93.82;5.90;;;;;;;21.43;47.18;100500.34;7302842;19;130966;-36
2023/09/25 06:22:12;;;;;;;39.35;3.22;;;;;;;21.45;47.34;100501.06;7307085;19;130134;-36
2023/09/25 06:24:37;;;;;;;135.53;8.10;;;;;;;21.44;47.66;100501.16;7304514;19;130750;-36
2023/09/25 06:27:02;;;;;;;86.93;5.35;;;;;;;21.44;47.81;100509.03;7305372;19;129808;-35
2023/09/25 06:29:28;;;;;;;109.78;7.10;;;;;;;21.43;47.46;100515.22;7304162;19;129018;-36
2023/09/25 06:31:53;;;;;;;83.57;5.30;;;;;;;21.41;47.79;100512.72;7304840;19;129625;-36
2023/09/25 06:34:18;;;;;;;85.70;5.25;;;;;;;21.27;47.55;100489.38;7304513;19;130355;-37
2023/09/25 06:36:44;;;;;;;100.45;6.45;;;;;;;21.41;47.50;100507.47;7306504;19;130654;-37
2023/09/25 06:39:10;;;;;;;62.92;4.32;;;;;;;21.42;47.69;100516.19;7305761;19;129331;-37
2023/09/25 06:41:39;;;;;;;107.85;6.75;;;;;;;21.29;48.50;100491.88;7303316;19;130170;-36
2023/09/25 06:44:05;;;;;;;82.30;4.90;;;;;;;21.38;47.53;100502.50;7305840;19;131147;-37
2023/09/25 06:46:32;;;;;;;81.97;5.63;;;;;;;21.43;48.06;100510.81;7306344;19;129444;-38
2023/09/25 06:48:59;;;;;;;74.85;4.70;;;;;;;21.40;47.73;100490.09;7304737;19;129144;-36
2023/09/25 06:51:26;;;;;;;63.13;4.35;;;;;;;21.36;48.08;100499.16;7297978;19;131057;-37
2023/09/25 06:53:51;;;;;;;93.85;6.07;;;;;;;21.39;47.77;100501.53;7303697;19;130409;-37
2023/09/25 06:56:16;;;;;;;73.78;5.07;;;;;;;21.39;48.60;100508.53;7302091;19;129810;-36
2023/09/25 06:58:42;;;;;;;63.88;4.80;;;;;;;21.43;48.47;100502.13;7304009;19;129927;-34
2023/09/25 07:01:07;;;;;;;71.73;5.10;;;;;;;21.38;48.64;100512.94;7301097;19;130430;-35
2023/09/25 07:03:32;;;;;;;131.57;7.57;;;;;;;21.40;48.42;100495.34;7302318;19;130577;-37
2023/09/25 07:05:58;;;;;;;94.00;6.20;;;;;;;21.40;48.42;100500.56;7305539;19;129997;-36
2023/09/25 07:08:25;;;;;;;110.43;7.03;;;;;;;21.41;48.52;100504.88;7303810;19;130091;-36
2023/09/25 07:10:50;;;;;;;106.28;6.90;;;;;;;21.42;48.21;100506.53;7298440;19;130170;-36
2023/09/25 07:13:16;;;;;;;121.85;7.07;;;;;;;21.44;48.89;100511.63;7303445;19;130470;-36
2023/09/25 07:15:43;;;;;;;80.88;5.80;;;;;;;21.43;49.40;100505.59;7300965;19;129057;-36
2023/09/25 07:18:09;;;;;;;;;;;;;;;21.28;50.38;100485.81;7300485;19;129835;-36
2023/09/25 07:20:34;;;;;;;68.90;4.57;;;;;;;21.40;48.59;100500.56;7301168;19;130626;-37
2023/09/25 07:23:00;;;;;;;100.57;5.90;;;;;;;21.38;48.68;100499.88;7302571;19;130382;-37
2023/09/25 07:25:25;;;;;;;67.72;4.43;;;;;;;21.42;49.02;100503.09;7302838;19;131000;-35
2023/09/25 07:27:51;;;;;;;77.85;5.30;;;;;;;21.39;49.47;100509.38;7301916;19;130358;-37
2023/09/25 07:30:16;;;;;;;100.70;6.38;;;;;;;21.38;49.04;100502.50;7299587;19;130712;-36
2023/09/25 07:32:42;;;;;;;120.37;7.63;;;;;;;21.39;48.74;100506.75;7304130;19;130026;-36
2023/09/25 07:35:15;;;;;;;63.97;4.25;;;;;;;21.38;49.52;100512.94;7302538;19;129858;-35
2023/09/25 07:37:41;;;;;;;84.80;5.70;;;;;;;21.28;49.42;100490.22;7302749;19;129120;-37
2023/09/25 07:40:13;;;;;;;69.97;4.93;;;;;;;21.38;49.62;100507.72;7300664;19;130185;-35
2023/09/25 07:42:42;;;;;;;115.88;7.45;;;;;;;21.38;49.39;100512.09;7300311;19;130487;-37
2023/09/25 07:45:12;;;;;;;61.92;4.70;;;;;;;21.33;49.75;100504.63;7304165;19;129538;-37
2023/09/25 07:47:41;;;;;;;66.68;4.43;;;;;;;21.32;50.37;100502.94;7300907;19;129952;-36
2023/09/25 07:50:10;;;;;;;81.95;5.45;;;;;;;21.37;50.13;100500.81;7299824;19;130126;-36
2023/09/25 07:52:39;;;;;;;97.43;5.97;;;;;;;21.30;50.55;100483.09;7297748;19;131166;-37
2023/09/25 07:55:11;;;;;;;146.48;8.57;;;;;;;21.40;49.82;100510.22;7298910;19;129496;-37
2023/09/25 07:57:40;;;;;;;81.90;5.68;;;;;;;21.41;50.17;100501.41;7302105;19;129406;-35
2023/09/25 08:00:15;;;;;;;82.07;5.72;;;;;;;21.38;50.39;100496.41;7296308;19;129736;-37
2023/09/25 08:02:47;;;;;;;84.55;5.63;;;;;;;21.38;50.61;100492.03;7305888;19;130479;-36
2023/09/25 08:05:13;;;;;;;73.13;4.53;;;;;;;21.39;50.22;100498.06;7308755;19;129505;-36
2023/09/25 08:07:38;;;;;;;144.32;8.68;;;;;;;21.40;50.69;100491.91;7307458;19;128967;-35
2023/09/25 08:10:04;;;;;;;90.50;5.75;;;;;;;21.29;50.53;100470.94;7306724;19;130170;-35
2023/09/25 08:12:30;;;;;;;57.90;3.87;;;;;;;21.41;50.24;100491.78;7309556;19;131637;-38
2023/09/25 08:14:55;;;;;;;98.82;6.25;;;;;;;21.43;50.70;100486.44;7306015;19;129422;-35
2023/09/25 08:17:20;;;;;;;90.68;5.35;;;;;;;21.39;50.43;100483.22;7310051;19;129711;-35
2023/09/25 08:19:50;;;;;;;120.43;8.63;;;;;;;21.40;50.95;100484.06;7302003;19;131427;-36
2023/09/25 08:22:15;;;;;;;109.30;6.55;;;;;;;21.45;50.93;100481.94;7307426;19;130000;-37
2023/09/25 08:24:41;;;;;;;76.05;5.07;;;;;;;21.44;50.89;100488.09;7309542;19;129419;-35
2023/09/25 08:27:06;;;;;;;82.30;5.73;;;;;;;21.46;51.58;100481.81;7311264;19;130015;-36
2023/09/25 08:29:31;;;;;;;82.70;5.28;;;;;;;21.50;51.44;100483.22;7308084;19;129454;-36
2023/09/25 08:31:57;;;;;;;64.50;4.28;;;;;;;21.51;51.34;100482.28;7308025;19;130843;-37
2023/09/25 08:34:22;;;;;;;118.50;6.80;;;;;;;21.46;51.48;100484.44;7307745;19;130202;-37
2023/09/25 08:36:47;;;;;;;123.67;8.23;;;;;;;21.34;51.35;100468.81;7307383;19;129354;-35
2023/09/25 08:39:13;;;;;;;53.95;4.18;;;;;;;21.51;51.62;100487.53;7307257;19;130741;-37
2023/09/25 08:41:40;;;;;;;88.43;5.88;;;;;;;21.50;51.72;100485.84;7306829;19;131428;-36
2023/09/25 08:44:06;;;;;;;119.88;7.13;;;;;;;21.51;51.96;100482.28;7308618;19;129431;-37
2023/09/25 08:46:31;;;;;;;67.30;4.65;;;;;;;21.48;52.33;100472.06;7308695;19;128818;-36
2023/09/25 08:48:59;;;;;;;70.07;5.03;;;;;;;21.54;51.81;100482.06;7308612;19;129936;-38
2023/09/25 08:51:24;;;;;;;91.95;6.13;;;;;;;21.45;52.40;100456.56;7307489;19;130804;-36
2023/09/25 08:53:51;;;;;;;119.00;7.30;;;;;;;21.51;52.31;100478.84;7309209;19;129785;-36
2023/09/25 08:56:17;;;;;;;68.22;4.85;;;;;;;21.38;52.43;100460.63;7306087;19;129078;-34
2023/09/25 08:58:45;;;;;;;83.03;5.90;;;;;;;21.56;52.56;100472.31;7306952;19;130192;-36
2023/09/25 09:01:11;;;;;;;59.90;4.25;;;;;;;21.61;52.36;100471.94;7303949;19;131265;-36
2023/09/25 09:03:37;;;;;;;138.68;8.48;;;;;;;21.59;51.68;100468.59;7305802;19;129614;-34
2023/09/25 09:06:03;;;;;;;69.35;4.90;;;;;;;21.57;51.92;100463.50;7308357;19;130931;-35
2023/09/25 09:08:29;;;;;;;73.97;4.88;;;;;;;21.56;52.15;100468.84;7302622;19;131908;-36
2023/09/25 09:10:55;;;;;;;79.10;5.70;;;;;;;21.55;52.20;100467.19;7303064;19;130207;-36
2023/09/25 09:13:23;;;;;;;93.18;5.75;;;;;;;21.53;51.94;100459.47;7304881;19;129651;-36
2023/09/25 09:15:49;;;;;;;124.57;8.30;;;;;;;21.53;51.84;100462.09;7303643;19;129273;-34
2023/09/25 09:18:22;;;;;;;120.43;7.65;;;;;;;21.51;52.26;100456.13;7302297;19;130261;-34
2023/09/25 09:20:48;;;;;;;118.90;7.85;;;;;;;21.51;51.62;100460.50;7304085;19;130385;-33
2023/09/25 09:23:17;;;;;;;103.38;6.65;;;;;;;21.51;51.73;100460.50;7306038;19;129544;-37
2023/09/25 09:25:47;;;;;;;76.82;5.03;;;;;;;21.50;52.23;100459.66;7305693;19;129498;-34
2023/09/25 09:28:13;;;;;;;76.13;5.22;;;;;;;21.38;51.95;100431.03;7306749;19;130330;-37
2023/09/25 09:30:39;;;;;;;65.82;4.25;;;;;;;21.54;52.18;100461.13;7303995;19;130711;-36
2023/09/25 09:33:07;;;;;;;80.20;5.30;;;;;;;21.53;52.21;100454.22;7305954;19;129566;-36
2023/09/25 09:35:33;;;;;;;74.25;4.47;;;;;;;21.39;51.53;100436.13;7306943;19;129972;-36
2023/09/25 09:37:58;;;;;;;92.15;5.97;;;;;;;21.48;51.77;100453.75;7307512;19;131426;-36
2023/09/25 09:40:25;;;;;;;47.88;3.40;;;;;;;21.52;52.07;100447.31;7303550;19;131885;-35
2023/09/25 09:42:51;;;;;;;;;;;;;;;21.32;52.54;100434.94;7308990;19;129563;-37
2023/09/25 09:45:18;;;;;;;90.38;5.40;;;;;;;21.46;51.79;100450.41;7308028;19;129684;-36
2023/09/25 09:47:45;;;;;;;77.85;4.97;;;;;;;21.46;51.59;100447.81;7307380;19;129833;-36
2023/09/25 09:50:12;;;;;;;73.22;4.60;;;;;;;21.46;51.81;100447.81;7303602;19;130398;-35
2023/09/25 09:52:39;;;;;;;70.70;4.30;;;;;;;21.45;51.82;100446.13;7306732;19;129477;-36
2023/09/25 09:55:06;;;;;;;109.43;6.30;;;;;;;21.47;52.20;100444.22;7305494;19;130343;-36
2023/09/25 09:57:32;;;;;;;48.15;3.33;;;;;;;21.46;52.08;100442.56;7307418;19;130397;-37
2023/09/25 09:59:57;;;;;;;108.18;6.78;;;;;;;21.47;52.22;100432.94;7302500;19;128942;-36
2023/09/25 10:02:26;;;;;;;88.35;5.45;;;;;;;21.46;52.24;100432.09;7307933;19;129400;-36
2023/09/25 10:04:52;;;;;;;126.75;7.93;;;;;;;21.45;52.45;100430.41;7305039;19;131993;-33
2023/09/25 10:07:17;;;;;;;86.82;5.63;;;;;;;21.43;52.08;100426.28;7306970;19;130239;-35
2023/09/25 10:10:06;;;;;;;53.73;3.73;;;;;;;21.46;52.85;100431.25;7305740;19;129821;-36
2023/09/25 10:12:52;;;;;;;74.75;4.72;;;;;;;21.36;53.36;100412.84;7307853;19;129201;-37
2023/09/25 10:15:22;;;;;;;96.32;5.65;;;;;;;21.46;52.60;100429.47;7305161;19;129577;-35
2023/09/25 10:17:48;;;;;;;69.57;4.60;;;;;;;21.49;52.56;100416.16;7306316;19;130263;-36
2023/09/25 10:20:32;;;;;;;106.43;5.90;;;;;;;21.46;53.28;100421.63;7305480;19;131251;-36
2023/09/25 10:22:59;;;;;;;82.10;5.35;;;;;;;21.50;52.32;100417.81;7307610;19;129653;-36
2023/09/25 10:25:26;;;;;;;66.32;4.20;;;;;;;21.50;52.05;100417.00;7307127;19;129502;-37
2023/09/25 10:27:52;;;;;;;;;;;;;;;21.48;53.39;100414.50;7304228;19;130048;-37
2023/09/25 10:30:18;;;;;;;130.30;7.80;;;;;;;21.46;52.41;100418.19;7303364;19;130286;-36
2023/09/25 10:32:55;;;;;;;80.25;4.82;;;;;;;21.44;53.12;100415.69;7308221;19;129126;-36
2023/09/25 10:35:47;;;;;;;115.60;7.03;;;;;;;21.43;53.06;100416.66;7305849;19;132676;-36
2023/09/25 10:38:25;;;;;;;130.27;7.72;;;;;;;21.45;52.95;100408.69;7302277;19;131435;-36
2023/09/25 10:40:52;;;;;;;58.03;4.00;;;;;;;21.46;52.46;100408.56;7305279;19;132291;-36
2023/09/25 10:43:19;;;;;;;69.97;4.60;;;;;;;21.47;52.00;100402.34;7306765;19;130383;-36
2023/09/25 10:45:45;;;;;;;56.83;3.78;;;;;;;21.51;51.95;100409.03;7306062;19;129254;-36
2023/09/25 10:48:11;;;;;;;129.35;7.63;;;;;;;21.45;51.98;100404.25;7305145;19;130166;-36
2023/09/25 10:50:37;;;;;;;80.50;4.73;;;;;;;21.51;52.44;100400.34;7302886;19;130317;-35
2023/09/25 10:53:07;;;;;;;90.57;5.72;;;;;;;21.49;52.50;100395.22;7305921;19;130196;-35
2023/09/25 10:55:34;;;;;;;93.85;6.28;;;;;;;21.51;52.12;100382.03;7303476;19;129506;-35
2023/09/25 10:58:01;;;;;;;116.22;7.18;;;;;;;21.51;52.62;100388.09;7304488;19;130049;-36
2023/09/25 11:00:27;;;;;;;136.25;7.82;;;;;;;21.48;52.42;100383.13;7300897;19;131305;-35
2023/09/25 11:02:52;;;;;;;78.05;5.18;;;;;;;21.50;52.82;100381.19;7306082;19;129436;-36
2023/09/25 11:05:18;;;;;;;54.90;3.58;;;;;;;21.50;52.06;100391.66;7306015;19;129590;-36
2023/09/25 11:07:44;;;;;;;90.43;5.70;;;;;;;21.52;52.50;100384.53;7306245;19;130275;-35